Time;durP1;ratioP1;P1;durP2;ratioP2;P2;SDS_P1;SDS_P2;PMS_P1;PMS_P2;Temp;Humidity;BMP_temperature;BMP_pressure;BME280_temperature;BME280_humidity;BME280_pressure;Samples;Min_cycle;Max_cycle;Signal;HPM_P1;HPM_P2
2024/01/28 00:00:16;;;;;;;2.95;2.00;;;4.80;85.90;;;;;;4988338;28;20071;-68
2024/01/28 00:02:42;;;;;;;4.28;2.15;;;4.80;86.00;;;;;;4994055;28;20029;-66
2024/01/28 00:05:11;;;;;;;3.65;1.80;;;4.80;86.00;;;;;;4990540;28;20069;-68
2024/01/28 00:07:37;;;;;;;2.78;1.98;;;4.80;86.00;;;;;;4989442;28;20389;-68
2024/01/28 00:10:03;;;;;;;4.55;2.28;;;4.80;86.00;;;;;;4981897;28;20025;-67
2024/01/28 00:12:28;;;;;;;3.60;2.10;;;4.70;86.00;;;;;;4986730;28;20025;-68
2024/01/28 00:14:54;;;;;;;3.45;1.95;;;4.70;86.10;;;;;;4989347;28;20080;-67
2024/01/28 00:17:19;;;;;;;5.38;2.00;;;4.70;86.20;;;;;;4986129;28;20053;-68
2024/01/28 00:19:45;;;;;;;5.35;2.45;;;4.60;86.70;;;;;;4982522;28;20034;-68
2024/01/28 00:22:10;;;;;;;5.15;2.38;;;4.60;86.10;;;;;;4983894;28;20030;-69
2024/01/28 00:24:36;;;;;;;4.38;2.50;;;4.50;86.10;;;;;;4989353;28;20052;-69
2024/01/28 00:27:01;;;;;;;3.30;2.50;;;4.50;86.30;;;;;;4988953;28;20023;-69
2024/01/28 00:29:30;;;;;;;4.15;2.22;;;4.50;86.40;;;;;;4981764;28;20022;-68
2024/01/28 00:31:56;;;;;;;4.82;2.50;;;4.50;86.40;;;;;;4980943;28;20053;-68
2024/01/28 00:34:22;;;;;;;3.92;2.60;;;4.50;86.40;;;;;;4993306;28;20030;-67
2024/01/28 00:36:48;;;;;;;4.43;2.60;;;4.40;86.50;;;;;;4984810;28;20105;-69
2024/01/28 00:39:13;;;;;;;6.40;2.80;;;4.40;86.50;;;;;;4990313;28;20045;-68
2024/01/28 00:41:39;;;;;;;4.63;2.50;;;4.30;86.60;;;;;;4988964;28;20464;-69
2024/01/28 00:44:05;;;;;;;4.38;2.60;;;4.10;86.50;;;;;;4988137;28;20240;-68
2024/01/28 00:46:34;;;;;;;4.47;2.50;;;4.30;86.80;;;;;;4988668;28;20027;-69
2024/01/28 00:49:01;;;;;;;6.63;2.72;;;4.20;86.80;;;;;;4992786;28;20025;-69
2024/01/28 00:51:27;;;;;;;6.55;3.33;;;4.30;86.90;;;;;;4991619;28;20023;-69
2024/01/28 00:53:54;;;;;;;5.47;2.92;;;4.20;86.80;;;;;;4998187;28;20026;-69
2024/01/28 00:56:19;;;;;;;6.03;2.65;;;4.30;86.90;;;;;;4992994;28;20030;-69
2024/01/28 00:58:45;;;;;;;7.25;3.03;;;4.20;86.90;;;;;;4998803;28;20046;-69
2024/01/28 01:01:12;;;;;;;3.47;2.38;;;4.30;86.80;;;;;;4988487;28;20026;-69
2024/01/28 01:03:37;;;;;;;5.65;2.75;;;4.30;86.80;;;;;;4996083;28;20388;-69
2024/01/28 01:06:05;;;;;;;5.78;2.50;;;4.30;86.80;;;;;;4999289;28;20026;-69
2024/01/28 01:08:32;;;;;;;3.97;1.88;;;4.30;86.70;;;;;;4997310;28;20023;-69
2024/01/28 01:10:58;;;;;;;3.45;2.03;;;4.30;86.60;;;;;;5005956;28;20488;-70
2024/01/28 01:13:23;;;;;;;5.82;2.65;;;4.30;86.50;;;;;;4998540;28;20084;-68
2024/01/28 01:15:49;;;;;;;3.63;2.30;;;4.30;86.50;;;;;;5001723;28;20548;-69
2024/01/28 01:18:15;;;;;;;3.70;2.28;;;4.30;86.50;;;;;;4994981;28;20668;-70
2024/01/28 01:20:41;;;;;;;3.70;2.15;;;4.30;86.60;;;;;;4991713;28;20460;-69
2024/01/28 01:23:07;;;;;;;3.08;2.17;;;4.30;86.60;;;;;;4992752;28;20026;-68
2024/01/28 01:25:32;;;;;;;2.83;2.00;;;4.30;86.50;;;;;;5000878;28;20390;-69
2024/01/28 01:27:58;;;;;;;3.15;2.05;;;4.40;86.60;;;;;;4997675;28;20101;-69
2024/01/28 01:30:24;;;;;;;4.22;2.00;;;4.40;86.50;;;;;;5005588;28;20022;-69
2024/01/28 01:32:49;;;;;;;4.38;2.05;;;4.40;86.50;;;;;;4995476;28;20022;-69
2024/01/28 01:35:15;;;;;;;4.97;2.22;;;4.30;86.40;;;;;;4991302;28;20485;-69
2024/01/28 01:37:41;;;;;;;4.03;2.10;;;4.30;87.10;;;;;;4990221;28;20600;-68
2024/01/28 01:40:09;;;;;;;3.63;2.10;;;4.20;86.60;;;;;;4997651;28;20030;-68
2024/01/28 01:42:34;;;;;;;3.33;1.92;;;4.30;86.70;;;;;;4994734;28;20058;-69
2024/01/28 01:45:01;;;;;;;3.00;2.00;;;4.30;86.70;;;;;;4991228;28;20060;-68
2024/01/28 01:47:27;;;;;;;3.40;1.90;;;4.30;86.70;;;;;;4990438;28;21032;-69
2024/01/28 01:49:54;;;;;;;2.25;1.73;;;4.20;86.70;;;;;;4992311;28;20400;-69
2024/01/28 01:52:20;;;;;;;3.90;2.00;;;4.20;86.70;;;;;;4987793;28;20102;-69
2024/01/28 01:54:47;;;;;;;3.03;1.90;;;4.20;86.80;;;;;;4991643;28;20720;-69
2024/01/28 01:57:13;;;;;;;3.92;1.80;;;4.10;86.80;;;;;;4989752;28;20681;-69
2024/01/28 01:59:40;;;;;;;2.47;1.80;;;4.10;86.80;;;;;;4985501;28;20034;-69
2024/01/28 02:02:09;;;;;;;3.67;1.88;;;4.10;86.90;;;;;;4990298;28;20022;-70
2024/01/28 02:04:35;;;;;;;3.45;1.90;;;4.20;86.90;;;;;;4985143;28;20023;-68
2024/01/28 02:07:01;;;;;;;2.90;1.73;;;4.20;86.80;;;;;;4981384;28;20026;-69
2024/01/28 02:09:27;;;;;;;3.05;1.63;;;4.20;86.80;;;;;;4988320;28;20120;-68
2024/01/28 02:11:52;;;;;;;2.80;1.77;;;4.20;86.80;;;;;;4988579;28;20487;-68
2024/01/28 02:14:22;;;;;;;3.58;1.83;;;4.20;86.80;;;;;;4984024;28;20117;-69
2024/01/28 02:16:50;;;;;;;3.45;1.90;;;4.10;86.90;;;;;;4982558;28;20027;-69
2024/01/28 02:19:19;;;;;;;2.88;1.85;;;4.10;86.90;;;;;;4989797;28;20065;-69
2024/01/28 02:21:45;;;;;;;2.60;1.73;;;4.10;86.80;;;;;;4992991;28;20031;-68
2024/01/28 02:24:13;;;;;;;3.30;1.70;;;4.10;86.80;;;;;;4984060;28;20026;-69
2024/01/28 02:26:39;;;;;;;2.58;1.52;;;4.10;86.80;;;;;;4982554;28;20015;-69
2024/01/28 02:29:05;;;;;;;3.08;1.58;;;4.00;86.90;;;;;;4988208;28;20030;-68
2024/01/28 02:31:30;;;;;;;2.33;1.60;;;4.00;86.90;;;;;;4993501;28;20627;-69
2024/01/28 02:33:58;;;;;;;2.97;1.80;;;3.90;86.90;;;;;;4985190;28;20065;-69
2024/01/28 02:36:24;;;;;;;3.83;1.80;;;3.90;87.00;;;;;;4986680;28;20026;-68
2024/01/28 02:38:49;;;;;;;2.45;1.67;;;3.90;87.00;;;;;;5005635;28;20109;-68
2024/01/28 02:41:15;;;;;;;3.70;1.83;;;3.90;86.90;;;;;;4997265;28;20022;-71
2024/01/28 02:43:40;;;;;;;3.08;2.05;;;3.90;87.00;;;;;;4998840;28;20073;-70
2024/01/28 02:46:06;;;;;;;3.50;1.73;;;3.90;87.00;;;;;;4996056;28;20432;-71
2024/01/28 02:48:32;;;;;;;3.25;1.90;;;3.90;86.90;;;;;;4992596;28;21584;-69
2024/01/28 02:50:57;;;;;;;5.03;2.30;;;3.90;87.00;;;;;;4996841;28;20689;-69
2024/01/28 02:53:23;;;;;;;4.22;2.10;;;3.80;87.00;;;;;;4998667;28;20065;-71
2024/01/28 02:55:55;;;;;;;2.97;1.85;;;3.80;87.10;;;;;;4993163;28;20038;-70
2024/01/28 02:58:21;;;;;;;2.58;1.80;;;3.80;87.20;;;;;;4997034;28;20030;-68
2024/01/28 03:00:46;;;;;;;3.45;2.15;;;3.70;87.10;;;;;;4995145;28;20555;-68
2024/01/28 03:03:12;;;;;;;3.70;2.00;;;3.70;87.20;;;;;;5000405;28;20502;-68
2024/01/28 03:05:37;;;;;;;1.95;1.60;;;3.70;87.20;;;;;;4996732;28;20571;-68
2024/01/28 03:08:03;;;;;;;3.15;1.92;;;3.70;87.30;;;;;;4997967;28;20018;-69
2024/01/28 03:10:30;;;;;;;3.58;2.20;;;3.70;87.20;;;;;;4988368;28;20030;-68
2024/01/28 03:12:56;;;;;;;3.45;2.20;;;3.60;87.20;;;;;;4993730;28;20429;-69
2024/01/28 03:15:21;;;;;;;4.15;2.20;;;3.60;87.30;;;;;;4990824;28;20109;-69
2024/01/28 03:17:47;;;;;;;4.72;2.40;;;3.60;87.30;;;;;;4992022;28;20065;-68
2024/01/28 03:20:12;;;;;;;4.68;2.63;;;3.60;87.40;;;;;;5005758;28;20031;-68
2024/01/28 03:22:39;;;;;;;4.00;2.38;;;3.50;87.30;;;;;;4992893;28;20030;-68
2024/01/28 03:25:05;;;;;;;3.03;2.22;;;3.50;87.30;;;;;;5002388;28;20677;-67
2024/01/28 03:27:31;;;;;;;9.02;2.88;;;3.50;87.30;;;;;;4997535;28;20116;-67
2024/01/28 03:29:56;;;;;;;3.97;2.33;;;3.50;87.40;;;;;;4988276;28;20077;-68
2024/01/28 03:32:22;;;;;;;3.40;2.20;;;3.50;87.50;;;;;;4988690;28;20044;-69
2024/01/28 03:34:47;;;;;;;4.20;2.20;;;3.50;87.50;;;;;;4997279;28;20030;-68
2024/01/28 03:37:13;;;;;;;5.32;2.50;;;3.50;87.40;;;;;;4997186;28;20112;-69
2024/01/28 03:39:38;;;;;;;3.65;2.47;;;3.50;87.50;;;;;;4998036;28;20018;-69
2024/01/28 03:42:04;;;;;;;3.03;2.05;;;3.50;87.50;;;;;;4998035;28;20046;-70
2024/01/28 03:44:30;;;;;;;4.40;2.20;;;3.50;87.50;;;;;;4998134;28;20037;-68
2024/01/28 03:46:55;;;;;;;3.92;2.22;;;3.60;87.40;;;;;;4982933;28;20022;-69
2024/01/28 03:49:21;;;;;;;3.35;1.92;;;3.60;87.20;;;;;;4986856;28;20152;-68
2024/01/28 03:51:47;;;;;;;3.05;1.77;;;3.60;87.10;;;;;;4998901;28;20031;-69
2024/01/28 03:54:12;;;;;;;2.85;1.73;;;3.60;87.10;;;;;;5000913;28;20037;-68
2024/01/28 03:56:40;;;;;;;4.07;1.77;;;3.60;87.20;;;;;;5001787;28;20186;-67
2024/01/28 03:59:06;;;;;;;2.88;1.75;;;3.60;87.20;;;;;;4999572;28;20048;-67
2024/01/28 04:01:35;;;;;;;2.97;1.83;;;3.50;87.30;;;;;;4997534;28;20038;-69
2024/01/28 04:04:01;;;;;;;3.47;1.90;;;3.50;87.40;;;;;;5000817;28;20380;-67
2024/01/28 04:06:27;;;;;;;2.65;1.60;;;3.50;87.50;;;;;;4983916;28;20690;-69
2024/01/28 04:08:57;;;;;;;3.95;2.22;;;3.50;87.50;;;;;;4990626;28;20201;-68
2024/01/28 04:11:24;;;;;;;5.03;2.00;;;3.40;87.50;;;;;;4990848;28;20026;-70
2024/01/28 04:13:49;;;;;;;4.60;2.00;;;3.50;87.50;;;;;;4992542;28;20065;-69
2024/01/28 04:16:15;;;;;;;3.95;2.00;;;3.40;87.50;;;;;;4991519;28;20074;-69
2024/01/28 04:18:41;;;;;;;4.78;2.30;;;3.40;87.60;;;;;;4999184;28;20038;-68
2024/01/28 04:21:06;;;;;;;4.72;2.20;;;3.40;87.60;;;;;;4996346;28;20074;-67
2024/01/28 04:23:32;;;;;;;3.38;2.22;;;3.30;87.60;;;;;;4992462;28;20027;-68
2024/01/28 04:25:57;;;;;;;3.67;2.15;;;3.30;87.70;;;;;;4989129;28;20030;-68
2024/01/28 04:28:25;;;;;;;3.70;2.28;;;3.30;87.70;;;;;;4995177;28;20377;-67
2024/01/28 04:30:50;;;;;;;4.45;2.75;;;3.30;87.70;;;;;;4999472;28;20042;-68
2024/01/28 04:33:16;;;;;;;4.18;2.50;;;3.30;87.60;;;;;;4993883;28;20104;-67
2024/01/28 04:35:42;;;;;;;4.45;2.58;;;3.30;87.70;;;;;;4993733;28;20034;-68
2024/01/28 04:38:07;;;;;;;5.50;2.50;;;3.30;87.80;;;;;;4995702;28;20453;-67
2024/01/28 04:40:33;;;;;;;5.22;2.97;;;3.30;87.80;;;;;;4990787;28;20026;-67
2024/01/28 04:42:58;;;;;;;5.13;2.40;;;3.30;87.80;;;;;;4989793;28;20033;-68
2024/01/28 04:45:24;;;;;;;4.05;2.10;;;3.30;87.80;;;;;;4986563;28;20109;-67
2024/01/28 04:47:49;;;;;;;3.58;2.25;;;3.30;87.70;;;;;;4998102;28;20049;-68
2024/01/28 04:50:15;;;;;;;3.05;2.00;;;3.30;87.80;;;;;;5001286;28;20018;-67
2024/01/28 04:52:40;;;;;;;4.55;2.33;;;3.30;87.70;;;;;;4989639;28;20041;-67
2024/01/28 04:55:07;;;;;;;2.33;1.92;;;3.30;87.70;;;;;;5006897;28;20037;-68
2024/01/28 04:57:32;;;;;;;2.53;1.88;;;3.30;87.70;;;;;;4986022;28;20034;-68
2024/01/28 04:59:58;;;;;;;3.22;1.90;;;3.30;87.70;;;;;;4989831;28;20094;-67
2024/01/28 05:02:23;;;;;;;4.43;2.22;;;3.30;88.20;;;;;;4990074;28;20426;-68
2024/01/28 05:04:49;;;;;;;3.13;2.10;;;3.30;87.40;;;;;;4995920;28;20030;-67
2024/01/28 05:07:16;;;;;;;2.47;1.90;;;3.30;87.50;;;;;;4996946;28;20042;-69
2024/01/28 05:09:42;;;;;;;3.22;2.15;;;3.30;87.60;;;;;;4996607;28;20022;-70
2024/01/28 05:12:07;;;;;;;3.17;2.08;;;3.30;87.60;;;;;;4996375;28;20025;-69
2024/01/28 05:14:34;;;;;;;2.63;1.80;;;3.30;87.50;;;;;;4994477;28;20035;-68
2024/01/28 05:17:01;;;;;;;3.03;1.90;;;3.30;87.50;;;;;;5006151;28;20034;-68
2024/01/28 05:19:26;;;;;;;3.72;2.00;;;3.30;87.60;;;;;;4994580;28;20515;-68
2024/01/28 05:21:52;;;;;;;3.90;2.03;;;3.30;87.60;;;;;;4989842;28;20146;-68
2024/01/28 05:24:18;;;;;;;4.70;2.38;;;3.30;87.50;;;;;;4989178;28;20038;-69
2024/01/28 05:26:43;;;;;;;3.53;2.20;;;3.30;87.60;;;;;;4996026;28;20013;-70
2024/01/28 05:29:09;;;;;;;2.30;1.70;;;3.30;87.50;;;;;;4991556;28;20108;-68
2024/01/28 05:31:35;;;;;;;3.10;1.85;;;3.30;87.60;;;;;;4983401;28;20026;-68
2024/01/28 05:34:01;;;;;;;3.53;1.92;;;3.30;87.50;;;;;;4987584;28;20600;-68
2024/01/28 05:36:27;;;;;;;3.72;1.92;;;3.30;87.40;;;;;;5003696;28;20024;-69
2024/01/28 05:38:54;;;;;;;2.58;1.83;;;3.30;87.40;;;;;;4989413;28;20666;-69
2024/01/28 05:41:20;;;;;;;3.58;2.00;;;3.30;87.40;;;;;;4990906;28;20027;-69
2024/01/28 05:43:46;;;;;;;4.13;2.00;;;3.30;87.40;;;;;;4989195;28;20165;-69
2024/01/28 05:46:11;;;;;;;4.05;2.17;;;3.30;87.40;;;;;;4992742;28;20122;-69
2024/01/28 05:48:37;;;;;;;3.70;2.03;;;3.30;87.40;;;;;;4992121;28;20081;-69
2024/01/28 05:51:03;;;;;;;2.10;1.60;;;3.30;87.40;;;;;;5007931;28;20068;-69
2024/01/28 05:53:28;;;;;;;3.10;1.73;;;3.30;87.30;;;;;;5000092;28;20421;-68
2024/01/28 05:55:54;;;;;;;2.90;1.83;;;3.30;87.90;;;;;;4991298;28;20481;-69
2024/01/28 05:58:22;;;;;;;2.58;1.90;;;3.30;87.30;;;;;;4998724;28;20022;-70
2024/01/28 06:00:48;;;;;;;3.03;2.10;;;3.20;87.40;;;;;;4988291;28;20121;-67
2024/01/28 06:03:14;;;;;;;2.92;2.20;;;3.20;88.00;;;;;;4993547;28;20105;-68
2024/01/28 06:05:40;;;;;;;3.00;2.10;;;3.20;87.40;;;;;;4990915;28;20038;-67
2024/01/28 06:08:07;;;;;;;3.25;2.22;;;3.20;87.50;;;;;;4993038;28;20031;-69
2024/01/28 06:10:32;;;;;;;2.40;2.17;;;3.20;87.50;;;;;;5000980;28;20018;-67
2024/01/28 06:12:58;;;;;;;4.65;2.13;;;3.20;87.40;;;;;;4991275;28;20077;-69
2024/01/28 06:15:23;;;;;;;3.20;2.25;;;3.20;87.40;;;;;;4991240;28;20023;-68
2024/01/28 06:17:49;;;;;;;3.90;1.98;;;3.20;87.40;;;;;;4995059;28;20026;-68
2024/01/28 06:20:15;;;;;;;4.95;2.47;;;3.20;87.50;;;;;;4992275;28;20050;-68
2024/01/28 06:22:40;;;;;;;2.63;2.22;;;3.10;87.40;;;;;;4987613;28;20735;-68
2024/01/28 06:25:07;;;;;;;4.35;2.15;;;3.10;87.50;;;;;;4998476;28;20029;-68
2024/01/28 06:27:33;;;;;;;3.63;2.20;;;3.10;87.50;;;;;;4996374;28;20484;-67
2024/01/28 06:29:58;;;;;;;4.40;2.22;;;3.10;87.50;;;;;;5002581;28;20033;-68
2024/01/28 06:32:25;;;;;;;5.47;2.83;;;3.10;87.50;;;;;;5005676;28;20087;-69
2024/01/28 06:34:51;;;;;;;7.35;3.00;;;3.00;87.50;;;;;;5005228;28;20033;-68
2024/01/28 06:37:16;;;;;;;6.85;3.00;;;3.00;87.60;;;;;;4989828;28;20101;-68
2024/01/28 06:39:42;;;;;;;4.55;2.55;;;3.00;87.50;;;;;;4988459;28;20032;-67
2024/01/28 06:42:09;;;;;;;4.75;2.22;;;3.00;87.50;;;;;;4975190;28;20769;-68
2024/01/28 06:44:36;;;;;;;4.15;2.20;;;3.00;87.50;;;;;;4986685;28;20031;-67
2024/01/28 06:47:03;;;;;;;3.85;1.80;;;3.10;87.50;;;;;;4975138;28;20074;-68
2024/01/28 06:49:29;;;;;;;4.78;2.42;;;3.00;87.50;;;;;;4976590;28;20110;-69
2024/01/28 06:51:54;;;;;;;4.80;2.60;;;3.00;87.50;;;;;;4991164;28;20106;-69
2024/01/28 06:54:21;;;;;;;5.03;2.92;;;3.00;87.50;;;;;;5000755;28;20521;-69
2024/01/28 06:56:48;;;;;;;4.00;2.53;;;3.00;87.60;;;;;;4986609;28;20476;-67
2024/01/28 06:59:14;;;;;;;3.35;2.30;;;3.00;87.60;;;;;;4990957;28;20548;-67
2024/01/28 07:01:40;;;;;;;4.88;2.53;;;3.00;88.20;;;;;;4990982;28;20034;-67
2024/01/28 07:04:06;;;;;;;2.97;2.35;;;3.00;87.50;;;;;;4994296;28;20105;-69
2024/01/28 07:06:32;;;;;;;3.63;2.42;;;3.00;87.50;;;;;;4993127;28;20035;-69
2024/01/28 07:08:57;;;;;;;5.00;2.67;;;3.00;87.60;;;;;;4991840;28;20036;-69
2024/01/28 07:11:23;;;;;;;3.80;2.35;;;2.90;87.60;;;;;;4992712;28;20477;-70
2024/01/28 07:13:49;;;;;;;4.35;2.55;;;2.90;87.60;;;;;;4984923;28;20494;-69
2024/01/28 07:16:14;;;;;;;4.18;2.63;;;2.90;87.60;;;;;;4985247;28;20500;-69
2024/01/28 07:18:40;;;;;;;4.32;2.20;;;2.90;87.60;;;;;;4990454;28;20030;-70
2024/01/28 07:21:06;;;;;;;4.13;2.10;;;2.90;87.70;;;;;;4991052;28;20156;-67
2024/01/28 07:23:31;;;;;;;4.00;2.20;;;2.90;87.70;;;;;;4992349;28;20374;-68
2024/01/28 07:25:57;;;;;;;5.68;2.60;;;2.90;87.70;;;;;;4984238;28;20080;-68
2024/01/28 07:28:23;;;;;;;3.25;2.22;;;2.90;87.60;;;;;;4993646;28;20030;-68
2024/01/28 07:30:48;;;;;;;3.88;2.50;;;2.90;87.70;;;;;;4993008;28;20081;-69
2024/01/28 07:33:15;;;;;;;4.97;2.55;;;2.90;87.60;;;;;;4994843;28;20023;-68
2024/01/28 07:35:41;;;;;;;4.15;2.10;;;2.90;87.60;;;;;;4990639;28;20038;-69
2024/01/28 07:38:08;;;;;;;4.10;2.20;;;2.90;87.60;;;;;;4993671;28;20147;-68
2024/01/28 07:40:34;;;;;;;3.10;2.00;;;2.90;87.70;;;;;;4989757;28;20531;-69
2024/01/28 07:43:00;;;;;;;4.50;2.20;;;2.90;87.60;;;;;;4991874;28;20046;-71
2024/01/28 07:45:25;;;;;;;5.75;2.08;;;3.00;87.70;;;;;;4994825;28;20121;-71
2024/01/28 07:47:51;;;;;;;3.33;2.10;;;3.00;87.60;;;;;;4992141;28;20042;-70
2024/01/28 07:50:17;;;;;;;3.63;2.00;;;3.10;87.60;;;;;;4986932;28;20385;-70
2024/01/28 07:52:43;;;;;;;4.65;2.30;;;3.10;87.40;;;;;;4988003;28;20025;-69
2024/01/28 07:55:10;;;;;;;4.88;2.70;;;3.10;88.00;;;;;;4990096;28;20041;-69
2024/01/28 07:57:35;;;;;;;6.05;2.90;;;3.20;87.40;;;;;;4991976;28;20595;-69
2024/01/28 08:00:01;;;;;;;4.43;2.38;;;3.20;87.30;;;;;;4990983;28;20049;-68
2024/01/28 08:02:27;;;;;;;6.20;2.45;;;3.20;87.30;;;;;;4987704;28;20034;-70
2024/01/28 08:04:54;;;;;;;4.00;2.40;;;3.30;87.20;;;;;;4980273;28;20043;-69
2024/01/28 08:07:20;;;;;;;3.97;2.20;;;3.40;87.10;;;;;;4987714;28;20037;-71
2024/01/28 08:09:45;;;;;;;2.95;2.20;;;3.50;87.00;;;;;;4990351;28;20673;-70
2024/01/28 08:12:11;;;;;;;3.47;2.15;;;3.50;86.80;;;;;;4991299;28;20032;-70
2024/01/28 08:14:36;;;;;;;5.03;2.17;;;3.60;86.70;;;;;;4994866;28;20113;-70
2024/01/28 08:17:02;;;;;;;3.63;2.40;;;3.60;86.60;;;;;;4990888;28;20159;-70
2024/01/28 08:19:28;;;;;;;3.42;2.17;;;3.60;86.60;;;;;;4995173;28;20432;-70
2024/01/28 08:21:53;;;;;;;3.65;1.90;;;3.70;86.60;;;;;;4992225;28;20136;-69
2024/01/28 08:24:19;;;;;;;5.07;2.30;;;3.70;86.50;;;;;;4990689;28;20094;-69
2024/01/28 08:26:44;;;;;;;3.20;1.90;;;3.80;86.40;;;;;;4990583;28;20030;-69
2024/01/28 08:29:11;;;;;;;4.32;2.08;;;3.80;86.30;;;;;;4995963;28;20127;-69
2024/01/28 08:31:37;;;;;;;3.65;2.10;;;3.90;86.20;;;;;;4989504;28;20026;-69
2024/01/28 08:34:02;;;;;;;5.10;2.10;;;3.90;86.10;;;;;;4986911;28;20030;-67
2024/01/28 08:36:28;;;;;;;3.70;1.85;;;3.90;86.60;;;;;;4987339;28;20078;-69
2024/01/28 08:38:53;;;;;;;4.10;2.40;;;3.90;86.00;;;;;;4982204;28;20069;-68
2024/01/28 08:41:19;;;;;;;3.97;2.10;;;3.90;86.00;;;;;;4991027;28;20022;-68
2024/01/28 08:43:44;;;;;;;2.15;1.75;;;3.90;86.00;;;;;;4990071;28;20033;-68
2024/01/28 08:46:10;;;;;;;4.35;1.95;;;3.90;85.90;;;;;;4990826;28;20033;-68
2024/01/28 08:48:36;;;;;;;4.63;2.22;;;4.00;85.90;;;;;;4993456;28;20095;-68
2024/01/28 08:51:01;;;;;;;3.13;2.22;;;3.90;85.80;;;;;;4991581;28;20481;-69
2024/01/28 08:53:27;;;;;;;3.35;2.20;;;3.90;85.90;;;;;;4988031;28;20058;-70
2024/01/28 08:55:53;;;;;;;3.35;2.10;;;3.90;85.90;;;;;;4984268;28;20038;-66
2024/01/28 08:58:18;;;;;;;3.47;2.40;;;3.90;85.90;;;;;;4989362;28;20034;-67
2024/01/28 09:00:44;;;;;;;4.47;2.42;;;3.90;85.80;;;;;;4989741;28;20033;-68
2024/01/28 09:03:09;;;;;;;3.30;2.17;;;3.90;85.90;;;;;;4996548;28;20524;-68
2024/01/28 09:05:35;;;;;;;4.20;2.22;;;4.00;85.90;;;;;;4990004;28;20081;-69
2024/01/28 09:08:01;;;;;;;3.70;2.30;;;4.00;85.80;;;;;;4989617;28;20644;-69
2024/01/28 09:10:27;;;;;;;3.40;1.90;;;4.00;85.80;;;;;;4988340;28;20057;-69
2024/01/28 09:12:52;;;;;;;4.53;2.53;;;4.10;85.70;;;;;;4987564;28;20033;-69
2024/01/28 09:15:18;;;;;;;3.65;2.05;;;4.10;85.50;;;;;;4989240;28;20034;-69
2024/01/28 09:17:44;;;;;;;3.35;1.92;;;4.20;85.50;;;;;;4988991;28;20030;-69
2024/01/28 09:20:10;;;;;;;2.72;2.00;;;4.20;85.40;;;;;;4995825;28;20031;-69
2024/01/28 09:22:36;;;;;;;4.03;2.50;;;4.20;85.30;;;;;;4996385;28;20628;-68
2024/01/28 09:25:03;;;;;;;3.63;1.73;;;4.30;85.80;;;;;;5000367;28;20018;-69
2024/01/28 09:27:29;;;;;;;3.53;2.00;;;4.30;85.20;;;;;;4993040;28;20046;-69
2024/01/28 09:29:55;;;;;;;4.47;2.15;;;4.40;85.20;;;;;;4995785;28;20061;-69
2024/01/28 09:32:20;;;;;;;5.07;2.15;;;4.40;85.10;;;;;;4985381;28;20065;-68
2024/01/28 09:34:46;;;;;;;2.83;1.80;;;4.40;85.00;;;;;;4998705;28;20038;-68
2024/01/28 09:37:12;;;;;;;3.53;2.13;;;4.40;85.00;;;;;;4999184;28;20030;-69
2024/01/28 09:39:37;;;;;;;4.30;2.13;;;4.50;84.90;;;;;;4994393;28;20064;-68
2024/01/28 09:42:20;;;;;;;2.83;1.60;;;4.60;84.80;;;;;;4983273;28;20035;-69
2024/01/28 09:44:47;;;;;;;3.08;2.20;;;4.70;84.70;;;;;;4991464;28;20057;-69
2024/01/28 09:47:13;;;;;;;3.83;2.10;;;4.70;84.40;;;;;;4993579;28;20026;-69
2024/01/28 09:49:39;;;;;;;3.70;2.20;;;4.80;84.40;;;;;;4997500;28;20556;-70
2024/01/28 09:52:13;;;;;;;5.68;2.40;;;4.80;84.20;;;;;;4994532;28;20029;-69
2024/01/28 09:54:44;;;;;;;5.28;2.45;;;4.80;84.10;;;;;;4998025;28;20463;-69
2024/01/28 09:57:11;;;;;;;3.63;2.40;;;4.90;84.00;;;;;;5000659;28;20492;-70
2024/01/28 09:59:37;;;;;;;4.32;2.30;;;4.90;83.50;;;;;;4990560;28;20507;-67
2024/01/28 10:02:04;;;;;;;4.50;2.28;;;4.90;83.50;;;;;;4988099;28;20030;-67
2024/01/28 10:04:30;;;;;;;4.72;2.30;;;4.90;83.30;;;;;;4990377;28;20038;-69
2024/01/28 10:06:59;;;;;;;4.28;2.45;;;5.10;83.60;;;;;;4992079;28;20030;-68
2024/01/28 10:09:25;;;;;;;4.55;2.50;;;5.10;83.30;;;;;;4992632;28;20029;-68
2024/01/28 10:11:51;;;;;;;4.22;2.20;;;5.10;82.90;;;;;;4998575;28;20034;-68
2024/01/28 10:14:17;;;;;;;3.55;2.20;;;5.20;82.90;;;;;;4992360;28;20505;-67
2024/01/28 10:16:48;;;;;;;3.13;2.03;;;5.20;82.90;;;;;;4995105;28;20023;-68
2024/01/28 10:19:13;;;;;;;4.80;2.38;;;5.30;83.00;;;;;;4987764;28;20026;-68
2024/01/28 10:21:40;;;;;;;4.35;2.40;;;5.30;82.50;;;;;;4993378;28;20508;-69
2024/01/28 10:24:08;;;;;;;3.42;2.28;;;5.30;82.30;;;;;;4995894;28;20421;-68
2024/01/28 10:26:34;;;;;;;3.28;2.15;;;5.40;82.00;;;;;;4988443;28;20063;-68
2024/01/28 10:28:59;;;;;;;3.95;2.10;;;5.40;82.20;;;;;;4994979;28;20093;-70
2024/01/28 10:31:26;;;;;;;3.92;2.10;;;5.40;82.10;;;;;;4988960;28;20560;-68
2024/01/28 10:33:52;;;;;;;4.10;2.33;;;5.50;82.00;;;;;;4994459;28;20424;-70
2024/01/28 10:36:18;;;;;;;3.22;2.30;;;5.50;81.40;;;;;;4990202;28;20026;-69
2024/01/28 10:38:45;;;;;;;5.70;2.78;;;5.60;81.60;;;;;;4986132;28;20056;-69
2024/01/28 10:41:15;;;;;;;3.38;2.17;;;5.60;81.40;;;;;;4991412;28;20034;-69
2024/01/28 10:44:05;;;;;;;4.38;2.50;;;5.70;81.50;;;;;;4993401;28;20061;-68
2024/01/28 10:46:41;;;;;;;4.25;2.25;;;5.70;81.40;;;;;;4990669;28;20097;-69
2024/01/28 10:49:09;;;;;;;3.88;2.17;;;5.80;81.20;;;;;;4994926;28;20053;-69
2024/01/28 10:51:36;;;;;;;3.22;2.10;;;5.90;81.00;;;;;;4990794;28;20027;-69
2024/01/28 10:54:04;;;;;;;4.40;2.38;;;5.90;80.30;;;;;;4991217;28;20018;-69
2024/01/28 10:56:31;;;;;;;2.78;2.05;;;6.00;80.70;;;;;;4991608;28;20532;-68
2024/01/28 10:58:57;;;;;;;4.22;2.40;;;6.00;80.50;;;;;;4992403;28;20113;-69
2024/01/28 11:01:24;;;;;;;3.10;1.92;;;6.10;80.50;;;;;;4997629;28;20057;-69
2024/01/28 11:03:52;;;;;;;3.00;1.88;;;6.20;80.40;;;;;;4993726;28;20031;-68
2024/01/28 11:06:18;;;;;;;3.42;1.95;;;6.30;80.40;;;;;;4990382;28;20088;-66
2024/01/28 11:08:45;;;;;;;3.20;2.20;;;6.30;79.80;;;;;;4993476;28;20018;-66
2024/01/28 11:11:12;;;;;;;4.05;2.63;;;6.30;79.80;;;;;;4988098;28;20054;-69
2024/01/28 11:13:38;;;;;;;6.57;2.95;;;6.40;79.50;;;;;;4992483;28;20131;-67
2024/01/28 11:16:10;;;;;;;6.82;2.35;;;6.40;79.20;;;;;;4987072;28;20083;-68
2024/01/28 11:18:36;;;;;;;5.05;2.22;;;6.50;79.40;;;;;;4993174;28;20034;-68
2024/01/28 11:21:18;;;;;;;4.50;2.05;;;6.60;79.20;;;;;;4996324;28;20053;-67
2024/01/28 11:23:44;;;;;;;2.72;1.92;;;6.70;79.40;;;;;;4988240;28;20444;-67
2024/01/28 11:26:20;;;;;;;4.68;2.50;;;6.70;79.00;;;;;;4989914;28;20022;-68
2024/01/28 11:28:50;;;;;;;6.13;2.20;;;6.70;78.90;;;;;;4993736;28;20037;-68
2024/01/28 11:31:30;;;;;;;3.47;2.28;;;6.80;78.90;;;;;;4986938;28;20026;-68
2024/01/28 11:34:06;;;;;;;3.33;1.90;;;6.80;78.80;;;;;;4992185;28;20030;-68
2024/01/28 11:36:35;;;;;;;4.43;2.08;;;6.90;78.80;;;;;;5000155;28;20057;-68
2024/01/28 11:39:07;;;;;;;3.33;1.85;;;6.90;78.70;;;;;;4994571;28;20564;-69
2024/01/28 11:41:40;;;;;;;;;;;7.00;78.80;;;;;;4990013;28;20054;-70
2024/01/28 11:44:08;;;;;;;4.38;2.10;;;7.10;78.40;;;;;;4991831;28;20595;-69
2024/01/28 11:46:35;;;;;;;3.90;2.08;;;7.10;78.30;;;;;;4989126;28;20025;-68
2024/01/28 11:49:01;;;;;;;3.92;2.40;;;7.10;78.10;;;;;;4992296;28;20046;-69
2024/01/28 11:51:28;;;;;;;4.07;2.00;;;7.20;78.00;;;;;;4983911;28;20061;-68
2024/01/28 11:53:54;;;;;;;2.75;1.90;;;7.20;78.30;;;;;;4987877;28;20444;-68
2024/01/28 11:56:20;;;;;;;3.35;2.10;;;7.30;78.30;;;;;;4996026;28;20056;-68
2024/01/28 11:58:46;;;;;;;2.30;1.63;;;7.40;78.20;;;;;;4992474;28;20054;-69
2024/01/28 12:01:12;;;;;;;5.15;2.50;;;7.50;77.90;;;;;;4987945;28;20449;-69
2024/01/28 12:03:38;;;;;;;2.17;1.85;;;7.50;77.30;;;;;;4987019;28;20477;-68
2024/01/28 12:06:04;;;;;;;3.35;1.90;;;7.60;77.40;;;;;;4990767;28;20079;-68
2024/01/28 12:08:31;;;;;;;3.28;2.00;;;7.60;77.70;;;;;;4986001;28;20034;-68
2024/01/28 12:11:02;;;;;;;2.35;1.70;;;7.70;77.70;;;;;;4986289;28;20027;-68
2024/01/28 12:13:28;;;;;;;3.47;2.03;;;7.80;78.10;;;;;;4992195;28;20037;-68
2024/01/28 12:15:58;;;;;;;4.05;2.17;;;8.10;78.30;;;;;;4995017;28;20034;-68
2024/01/28 12:18:32;;;;;;;4.43;2.30;;;9.60;76.40;;;;;;4993015;28;20033;-68
2024/01/28 12:20:58;;;;;;;3.05;1.90;;;11.30;72.40;;;;;;4995047;28;20026;-68
2024/01/28 12:23:23;;;;;;;6.10;2.47;;;12.50;69.00;;;;;;4993772;28;20084;-69
2024/01/28 12:25:49;;;;;;;4.78;2.25;;;12.90;66.30;;;;;;4994270;28;20023;-69
2024/01/28 12:28:15;;;;;;;3.28;1.80;;;12.80;65.40;;;;;;4991217;28;20029;-68
2024/01/28 12:30:41;;;;;;;3.40;1.92;;;11.70;66.10;;;;;;4995390;28;20022;-68
2024/01/28 12:33:07;;;;;;;3.85;2.20;;;10.60;68.60;;;;;;4995318;28;20026;-67
2024/01/28 12:35:33;;;;;;;3.38;1.90;;;9.90;70.20;;;;;;4984726;28;20081;-68
2024/01/28 12:37:58;;;;;;;4.45;2.10;;;9.60;71.70;;;;;;4981941;28;20366;-68
2024/01/28 12:40:24;;;;;;;3.50;2.25;;;9.60;73.40;;;;;;4987462;28;20422;-68
2024/01/28 12:42:50;;;;;;;4.38;2.03;;;11.00;72.00;;;;;;4992144;28;20103;-67
2024/01/28 12:45:15;;;;;;;4.05;2.13;;;12.10;69.10;;;;;;4994592;28;20058;-68
2024/01/28 12:47:41;;;;;;;6.55;2.17;;;12.50;66.50;;;;;;4993722;28;20374;-68
2024/01/28 12:50:08;;;;;;;4.50;2.20;;;12.80;65.60;;;;;;4995406;28;20037;-68
2024/01/28 12:52:34;;;;;;;2.78;2.08;;;13.20;65.30;;;;;;4984244;28;20507;-68